createdAt,value
2023-01-29T00:02:13.316Z,102197.00
2023-01-29T00:04:40.151Z,102201.00
2023-01-29T00:07:06.868Z,102189.00
2023-01-29T00:09:33.708Z,102199.00
2023-01-29T00:12:00.496Z,102194.00
2023-01-29T00:14:30.135Z,102192.00
2023-01-29T00:16:56.925Z,102201.00
2023-01-29T00:19:23.676Z,102193.00
2023-01-29T00:21:50.406Z,102199.00
2023-01-29T00:24:17.194Z,102196.00
2023-01-29T00:26:44.231Z,102200.00
2023-01-29T00:29:11.275Z,102203.00
2023-01-29T00:31:38.253Z,102210.00
2023-01-29T00:34:05.114Z,102197.00
2023-01-29T00:36:31.984Z,102198.00
2023-01-29T00:39:03.414Z,102186.00
2023-01-29T00:41:51.746Z,102177.00
2023-01-29T00:44:37.484Z,102174.00
2023-01-29T00:47:05.118Z,102169.00
2023-01-29T00:49:31.845Z,102167.00
2023-01-29T00:52:17.452Z,102162.00
2023-01-29T00:54:44.252Z,102165.00
2023-01-29T00:57:10.973Z,102175.00
2023-01-29T00:59:38.031Z,102162.00
2023-01-29T01:02:23.408Z,102170.00
2023-01-29T01:04:50.419Z,102166.00
2023-01-29T01:07:17.164Z,102167.00
2023-01-29T01:10:02.639Z,102163.00
2023-01-29T01:12:30.081Z,102167.00
2023-01-29T01:14:57.226Z,102163.00
2023-01-29T01:17:24.744Z,102169.00
2023-01-29T01:19:51.513Z,102164.00
2023-01-29T01:22:18.421Z,102165.00
2023-01-29T01:24:45.368Z,102160.00
2023-01-29T01:27:13.194Z,102175.00
2023-01-29T01:29:40.663Z,102179.00
2023-01-29T01:32:07.638Z,102176.00
2023-01-29T01:34:34.421Z,102171.00
2023-01-29T01:37:01.309Z,102160.00
2023-01-29T01:39:28.124Z,102168.00
2023-01-29T01:41:55.457Z,102178.00
2023-01-29T01:44:59.337Z,102157.00
2023-01-29T01:47:43.173Z,102177.00
2023-01-29T01:50:20.576Z,102183.00
2023-01-29T01:52:55.393Z,102175.00
2023-01-29T01:55:27.965Z,102178.00
2023-01-29T01:58:06.466Z,102183.00
2023-01-29T02:00:33.608Z,102166.00
2023-01-29T02:03:20.797Z,102161.00
2023-01-29T02:06:06.677Z,102165.00
2023-01-29T02:09:12.364Z,102156.00
2023-01-29T02:11:39.568Z,102160.00
2023-01-29T02:14:08.842Z,102143.00
2023-01-29T02:16:36.847Z,102145.00
2023-01-29T02:19:18.634Z,102154.00
2023-01-29T02:21:45.390Z,102144.00
2023-01-29T02:25:10.230Z,102145.00
2023-01-29T02:28:19.004Z,102135.00
2023-01-29T02:31:04.328Z,102134.00
2023-01-29T02:34:11.792Z,102128.00
2023-01-29T02:36:54.792Z,102139.00
2023-01-29T02:39:47.417Z,102138.00
2023-01-29T02:42:28.062Z,102136.00
2023-01-29T02:45:14.130Z,102132.00
2023-01-29T02:47:58.990Z,102136.00
2023-01-29T02:50:33.998Z,102131.00
2023-01-29T02:53:16.104Z,102127.00
2023-01-29T02:56:06.850Z,102133.00
2023-01-29T02:58:41.979Z,102120.00
2023-01-29T03:01:18.015Z,102115.00
2023-01-29T03:03:53.100Z,102118.00
2023-01-29T03:06:34.122Z,102126.00
2023-01-29T03:09:26.795Z,102119.00
2023-01-29T03:12:02.627Z,102119.00
2023-01-29T03:14:58.855Z,102112.00
2023-01-29T03:17:37.173Z,102112.00
2023-01-29T03:20:13.594Z,102112.00
2023-01-29T03:22:45.352Z,102115.00
2023-01-29T03:25:34.345Z,102114.00
2023-01-29T03:28:24.046Z,102118.00
2023-01-29T03:31:17.211Z,102109.00
2023-01-29T03:34:05.390Z,102105.00
2023-01-29T03:36:47.172Z,102104.00
2023-01-29T03:39:16.700Z,102083.00
2023-01-29T03:41:50.432Z,102092.00
2023-01-29T03:44:34.819Z,102087.00
2023-01-29T03:47:20.109Z,102076.00
2023-01-29T03:50:21.297Z,102077.00
2023-01-29T03:53:02.720Z,102075.00
2023-01-29T03:55:49.600Z,102060.00
2023-01-29T03:58:29.631Z,102059.00
2023-01-29T04:01:03.936Z,102061.00
2023-01-29T04:03:43.358Z,102046.00
2023-01-29T04:06:20.644Z,102042.00
2023-01-29T04:08:58.523Z,102025.00
2023-01-29T04:11:27.403Z,102017.00
2023-01-29T04:13:54.684Z,102023.00
2023-01-29T04:16:29.135Z,102009.00
2023-01-29T04:18:56.656Z,102006.00
2023-01-29T04:21:25.233Z,102009.00
2023-01-29T04:23:52.057Z,101999.00
2023-01-29T04:26:28.372Z,102011.00
2023-01-29T04:29:38.036Z,102006.00
2023-01-29T04:32:15.499Z,102004.00
2023-01-29T04:35:26.529Z,101986.00
2023-01-29T04:38:16.171Z,101978.00
2023-01-29T04:41:08.866Z,101980.00
2023-01-29T04:44:00.753Z,101996.00
2023-01-29T04:46:53.055Z,101999.00
2023-01-29T04:49:52.117Z,102004.00
2023-01-29T04:52:36.760Z,102002.00
2023-01-29T04:55:25.591Z,102000.00
2023-01-29T04:58:07.260Z,102000.00
2023-01-29T05:00:41.847Z,101993.00
2023-01-29T05:03:11.608Z,102005.00
2023-01-29T05:05:43.746Z,102004.00
2023-01-29T05:08:16.931Z,101996.00
2023-01-29T05:10:45.738Z,101997.00
2023-01-29T05:13:15.043Z,102005.00
2023-01-29T05:16:00.739Z,102008.00
2023-01-29T05:18:29.214Z,102010.00
2023-01-29T05:20:59.838Z,101993.00
2023-01-29T05:23:26.740Z,102007.00
2023-01-29T05:25:53.680Z,102006.00
2023-01-29T05:28:20.410Z,102022.00
2023-01-29T05:30:50.671Z,102006.00
2023-01-29T05:33:35.315Z,102010.00
2023-01-29T05:36:02.113Z,102012.00
2023-01-29T05:38:29.018Z,102007.00
2023-01-29T05:40:59.360Z,102021.00
2023-01-29T05:43:26.195Z,102022.00
2023-01-29T05:46:02.024Z,102011.00
2023-01-29T05:48:31.330Z,102005.00
2023-01-29T05:51:04.302Z,102013.00
2023-01-29T05:53:32.837Z,102030.00
2023-01-29T05:56:04.676Z,102014.00
2023-01-29T05:58:32.732Z,102030.00
2023-01-29T06:01:12.824Z,102034.00
2023-01-29T06:03:39.620Z,102027.00
2023-01-29T06:06:07.106Z,102026.00
2023-01-29T06:08:33.921Z,102021.00
2023-01-29T06:11:00.827Z,102040.00
2023-01-29T06:13:27.728Z,102038.00
2023-01-29T06:15:54.617Z,102040.00
2023-01-29T06:18:22.317Z,102039.00
2023-01-29T06:20:49.031Z,102043.00
2023-01-29T06:23:15.844Z,102042.00
2023-01-29T06:25:42.836Z,102039.00
2023-01-29T06:28:09.584Z,102037.00
2023-01-29T06:30:36.376Z,102027.00
2023-01-29T06:33:03.256Z,102026.00
2023-01-29T06:35:30.231Z,102022.00
2023-01-29T06:37:57.138Z,102017.00
2023-01-29T06:40:23.922Z,102026.00
2023-01-29T06:42:50.793Z,102021.00
2023-01-29T06:45:17.507Z,102031.00
2023-01-29T06:47:44.267Z,102036.00
2023-01-29T06:50:11.783Z,102030.00
2023-01-29T06:52:38.497Z,102037.00
2023-01-29T06:55:06.043Z,102031.00
2023-01-29T06:57:32.814Z,102040.00
2023-01-29T06:59:59.831Z,102027.00
2023-01-29T07:02:26.727Z,102041.00
2023-01-29T07:04:53.673Z,102031.00
2023-01-29T07:07:20.609Z,102027.00
2023-01-29T07:09:47.433Z,102033.00
2023-01-29T07:12:14.208Z,102027.00
2023-01-29T07:14:41.166Z,102026.00
2023-01-29T07:17:07.948Z,102021.00
2023-01-29T07:19:34.661Z,102021.00
2023-01-29T07:22:04.317Z,102014.00
2023-01-29T07:24:31.606Z,102020.00
2023-01-29T07:26:58.371Z,102013.00
2023-01-29T07:29:25.127Z,102033.00
2023-01-29T07:31:52.053Z,102035.00
2023-01-29T07:34:18.924Z,102035.00
2023-01-29T07:36:45.797Z,102035.00
2023-01-29T07:39:12.663Z,102030.00
2023-01-29T07:41:39.437Z,102020.00
2023-01-29T07:44:06.149Z,102010.00
2023-01-29T07:46:33.006Z,102010.00
2023-01-29T07:48:59.810Z,102013.00
2023-01-29T07:51:26.533Z,102011.00
2023-01-29T07:53:53.456Z,101996.00
2023-01-29T07:56:20.207Z,101978.00
2023-01-29T07:58:46.935Z,101988.00
2023-01-29T08:01:13.823Z,101995.00
2023-01-29T08:03:40.609Z,102003.00
2023-01-29T08:06:07.701Z,102002.00
2023-01-29T08:08:34.548Z,101993.00
2023-01-29T08:11:03.502Z,101982.00
2023-01-29T08:13:30.665Z,101993.00
2023-01-29T08:16:02.526Z,101982.00
2023-01-29T08:18:31.432Z,101992.00
2023-01-29T08:21:02.766Z,101990.00
2023-01-29T08:23:30.504Z,101999.00
2023-01-29T08:25:57.566Z,101987.00
2023-01-29T08:28:24.850Z,101985.00
2023-01-29T08:30:51.727Z,101996.00
2023-01-29T08:33:23.797Z,101996.00
2023-01-29T08:35:53.621Z,101987.00
2023-01-29T08:38:20.732Z,101977.00
2023-01-29T08:40:47.463Z,101988.00
2023-01-29T08:43:15.828Z,101980.00
2023-01-29T08:45:44.413Z,101983.00
2023-01-29T08:48:11.781Z,101979.00
2023-01-29T08:50:38.860Z,101976.00
2023-01-29T08:53:08.605Z,101981.00
2023-01-29T08:55:37.487Z,101984.00
2023-01-29T08:58:06.451Z,101977.00
2023-01-29T09:00:34.949Z,101979.00
2023-01-29T09:03:01.937Z,101971.00
2023-01-29T09:05:28.985Z,101966.00
2023-01-29T09:07:59.004Z,101974.00
2023-01-29T09:10:26.090Z,101973.00
2023-01-29T09:12:52.868Z,101970.00
2023-01-29T09:15:19.855Z,101965.00
2023-01-29T09:17:46.946Z,101969.00
2023-01-29T09:20:13.768Z,101959.00
2023-01-29T09:22:40.557Z,101971.00
2023-01-29T09:25:08.201Z,101966.00
2023-01-29T09:27:35.184Z,101975.00
2023-01-29T09:30:02.078Z,101972.00
2023-01-29T09:32:52.557Z,101970.00
2023-01-29T09:35:18.314Z,101970.00
2023-01-29T09:37:49.071Z,101965.00
2023-01-29T09:40:34.251Z,101962.00
2023-01-29T09:43:13.855Z,101958.00
2023-01-29T09:45:58.268Z,101945.00
2023-01-29T09:48:32.597Z,101934.00
2023-01-29T09:51:08.508Z,101942.00
2023-01-29T09:53:40.415Z,101929.00
2023-01-29T09:56:21.121Z,101933.00
2023-01-29T09:58:48.597Z,101930.00
2023-01-29T10:01:57.942Z,101922.00
2023-01-29T10:04:49.786Z,101920.00
2023-01-29T10:07:50.519Z,101927.00
2023-01-29T10:10:41.779Z,101920.00
2023-01-29T10:13:44.053Z,101913.00
2023-01-29T10:16:50.450Z,101903.00
2023-01-29T10:19:47.592Z,101894.00
2023-01-29T10:22:36.581Z,101891.00
2023-01-29T10:25:09.970Z,101908.00
2023-01-29T10:27:40.855Z,101910.00
2023-01-29T10:30:25.942Z,101914.00
2023-01-29T10:32:55.456Z,101914.00
2023-01-29T10:35:34.728Z,101920.00
2023-01-29T10:38:39.917Z,101905.00
2023-01-29T10:41:38.901Z,101902.00
2023-01-29T10:44:45.307Z,101891.00
2023-01-29T10:47:57.289Z,101888.00
2023-01-29T10:50:47.744Z,101882.00
2023-01-29T10:53:57.099Z,101881.00
2023-01-29T10:56:41.966Z,101874.00
2023-01-29T10:59:44.683Z,101874.00
2023-01-29T11:02:19.692Z,101859.00
2023-01-29T11:04:47.096Z,101846.00
2023-01-29T11:07:18.666Z,101849.00
2023-01-29T11:10:05.110Z,101842.00
2023-01-29T11:12:33.633Z,101844.00
2023-01-29T11:15:24.650Z,101837.00
2023-01-29T11:18:15.961Z,101840.00
2023-01-29T11:20:45.678Z,101836.00
2023-01-29T11:23:33.296Z,101832.00
2023-01-29T11:26:01.039Z,101814.00
2023-01-29T11:28:51.193Z,101821.00
2023-01-29T11:31:37.159Z,101824.00
2023-01-29T11:34:21.383Z,101827.00
2023-01-29T11:37:02.355Z,101817.00
2023-01-29T11:39:32.338Z,101812.00
2023-01-29T11:42:05.147Z,101811.00
2023-01-29T11:44:42.740Z,101804.00
2023-01-29T11:47:29.862Z,101797.00
2023-01-29T11:50:01.551Z,101798.00
2023-01-29T11:52:39.035Z,101796.00
2023-01-29T11:55:17.977Z,101791.00
2023-01-29T11:57:52.538Z,101786.00
2023-01-29T12:00:31.229Z,101786.00
2023-01-29T12:03:39.729Z,101781.00
2023-01-29T12:06:20.082Z,101784.00
2023-01-29T12:08:56.584Z,101783.00
2023-01-29T12:11:33.712Z,101770.00
2023-01-29T12:14:05.308Z,101759.00
2023-01-29T12:16:56.537Z,101755.00
2023-01-29T12:19:42.624Z,101754.00
2023-01-29T12:22:56.110Z,101738.00
2023-01-29T12:25:38.480Z,101748.00
2023-01-29T12:28:41.148Z,101751.00
2023-01-29T12:31:34.042Z,101737.00
2023-01-29T12:34:15.317Z,101738.00
2023-01-29T12:36:53.257Z,101730.00
2023-01-29T12:39:21.475Z,101715.00
2023-01-29T12:42:10.995Z,101711.00
2023-01-29T12:44:51.765Z,101706.00
2023-01-29T12:47:35.648Z,101718.00
2023-01-29T12:50:20.057Z,101729.00
2023-01-29T12:52:55.606Z,101715.00
2023-01-29T12:55:32.608Z,101719.00
2023-01-29T12:58:04.707Z,101716.00
2023-01-29T13:00:40.270Z,101716.00
2023-01-29T13:03:17.256Z,101721.00
2023-01-29T13:06:07.169Z,101719.00
2023-01-29T13:08:58.641Z,101718.00
2023-01-29T13:11:40.248Z,101701.00
2023-01-29T13:14:22.767Z,101710.00
2023-01-29T13:16:57.503Z,101705.00
2023-01-29T13:19:40.098Z,101691.00
2023-01-29T13:22:25.833Z,101691.00
2023-01-29T13:25:04.298Z,101689.00
2023-01-29T13:27:35.172Z,101693.00
2023-01-29T13:30:03.240Z,101687.00
2023-01-29T13:32:33.814Z,101682.00
2023-01-29T13:35:06.296Z,101694.00
2023-01-29T13:37:38.021Z,101688.00
2023-01-29T13:40:19.145Z,101679.00
2023-01-29T13:42:49.511Z,101682.00
2023-01-29T13:45:34.827Z,101677.00
2023-01-29T13:48:23.251Z,101673.00
2023-01-29T13:50:53.017Z,101683.00
2023-01-29T13:53:34.767Z,101681.00
2023-01-29T13:56:35.485Z,101686.00
2023-01-29T13:59:06.462Z,101683.00
2023-01-29T14:01:48.392Z,101683.00
2023-01-29T14:04:26.752Z,101680.00
2023-01-29T14:06:56.296Z,101682.00
2023-01-29T14:09:38.451Z,101673.00
2023-01-29T14:12:25.172Z,101667.00
2023-01-29T14:15:15.815Z,101665.00
2023-01-29T14:18:05.995Z,101659.00
2023-01-29T14:20:48.613Z,101663.00
2023-01-29T14:23:41.241Z,101663.00
2023-01-29T14:26:26.085Z,101650.00
2023-01-29T14:28:58.721Z,101661.00
2023-01-29T14:31:57.782Z,101657.00
2023-01-29T14:34:42.424Z,101663.00
2023-01-29T14:37:16.104Z,101655.00
2023-01-29T14:39:57.763Z,101652.00
2023-01-29T14:43:06.436Z,101649.00
2023-01-29T14:45:44.737Z,101654.00
2023-01-29T14:48:11.461Z,101641.00
2023-01-29T14:50:45.694Z,101638.00
2023-01-29T14:53:45.202Z,101645.00
2023-01-29T14:56:41.874Z,101631.00
2023-01-29T14:59:33.385Z,101637.00
2023-01-29T15:02:22.106Z,101621.00
2023-01-29T15:04:58.410Z,101625.00
2023-01-29T15:07:53.316Z,101623.00
2023-01-29T15:10:35.699Z,101625.00
2023-01-29T15:13:15.342Z,101621.00
2023-01-29T15:15:54.174Z,101628.00
2023-01-29T15:18:29.590Z,101617.00
2023-01-29T15:21:14.136Z,101614.00
2023-01-29T15:23:41.311Z,101612.00
2023-01-29T15:26:12.299Z,101606.00
2023-01-29T15:28:39.881Z,101603.00
2023-01-29T15:31:14.669Z,101602.00
2023-01-29T15:33:45.562Z,101594.00
2023-01-29T15:36:23.706Z,101589.00
2023-01-29T15:39:11.597Z,101592.00
2023-01-29T15:41:38.599Z,101590.00
2023-01-29T15:44:16.600Z,101592.00
2023-01-29T15:46:55.941Z,101576.00
2023-01-29T15:49:36.576Z,101580.00
2023-01-29T15:52:18.029Z,101583.00
2023-01-29T15:54:45.596Z,101577.00
2023-01-29T15:57:24.624Z,101577.00
2023-01-29T15:59:54.752Z,101573.00
2023-01-29T16:02:41.710Z,101563.00
2023-01-29T16:05:20.462Z,101566.00
2023-01-29T16:07:49.165Z,101560.00
2023-01-29T16:10:24.017Z,101563.00
2023-01-29T16:12:52.291Z,101559.00
2023-01-29T16:15:53.621Z,101557.00
2023-01-29T16:18:31.003Z,101550.00
2023-01-29T16:21:05.430Z,101554.00
2023-01-29T16:23:41.755Z,101548.00
2023-01-29T16:26:15.563Z,101550.00
2023-01-29T16:28:44.897Z,101544.00
2023-01-29T16:31:14.089Z,101550.00
2023-01-29T16:33:43.393Z,101549.00
2023-01-29T16:36:24.593Z,101545.00
2023-01-29T16:39:01.056Z,101548.00
2023-01-29T16:41:38.234Z,101544.00
2023-01-29T16:44:45.879Z,101546.00
2023-01-29T16:47:23.728Z,101548.00
2023-01-29T16:49:55.024Z,101544.00
2023-01-29T16:52:40.300Z,101534.00
2023-01-29T16:55:13.172Z,101543.00
2023-01-29T16:57:42.089Z,101536.00
2023-01-29T17:00:23.274Z,101539.00
2023-01-29T17:02:55.174Z,101534.00
2023-01-29T17:05:28.128Z,101532.00
2023-01-29T17:07:58.631Z,101521.00
2023-01-29T17:10:28.420Z,101524.00
2023-01-29T17:13:05.223Z,101524.00
2023-01-29T17:15:36.746Z,101515.00
2023-01-29T17:18:03.959Z,101511.00
2023-01-29T17:20:31.534Z,101513.00
2023-01-29T17:22:58.272Z,101511.00
2023-01-29T17:25:25.053Z,101498.00
2023-01-29T17:27:52.199Z,101501.00
2023-01-29T17:30:24.261Z,101499.00
2023-01-29T17:32:51.090Z,101511.00
2023-01-29T17:35:20.827Z,101510.00
2023-01-29T17:37:47.880Z,101487.00
2023-01-29T17:40:38.888Z,101500.00
2023-01-29T17:43:07.093Z,101487.00
2023-01-29T17:45:34.254Z,101486.00
2023-01-29T17:48:01.057Z,101473.00
2023-01-29T17:50:32.064Z,101474.00
2023-01-29T17:52:59.065Z,101471.00
2023-01-29T17:55:25.822Z,101456.00
2023-01-29T17:57:52.614Z,101450.00
2023-01-29T18:00:23.951Z,101451.00
2023-01-29T18:02:51.719Z,101449.00
2023-01-29T18:05:19.283Z,101450.00
2023-01-29T18:07:47.396Z,101437.00
2023-01-29T18:10:21.106Z,101436.00
2023-01-29T18:12:47.978Z,101425.00
2023-01-29T18:15:15.440Z,101436.00
2023-01-29T18:17:42.937Z,101422.00
2023-01-29T18:20:25.636Z,101423.00
2023-01-29T18:22:52.901Z,101423.00
2023-01-29T18:25:20.479Z,101419.00
2023-01-29T18:27:47.526Z,101413.00
2023-01-29T18:30:15.234Z,101421.00
2023-01-29T18:32:41.963Z,101423.00
2023-01-29T18:35:09.549Z,101408.00
2023-01-29T18:37:36.380Z,101408.00
2023-01-29T18:40:03.841Z,101412.00
2023-01-29T18:42:35.941Z,101405.00
2023-01-29T18:45:03.848Z,101407.00
2023-01-29T18:47:30.602Z,101405.00
2023-01-29T18:49:57.661Z,101402.00
2023-01-29T18:52:24.463Z,101404.00
2023-01-29T18:54:51.221Z,101385.00
2023-01-29T18:58:29.038Z,101404.00
2023-01-29T19:00:05.533Z,101395.00
2023-01-29T19:02:32.724Z,101397.00
2023-01-29T19:04:59.577Z,101391.00
2023-01-29T19:07:26.472Z,101388.00
2023-01-29T19:09:53.214Z,101385.00
2023-01-29T19:12:20.046Z,101381.00
2023-01-29T19:14:46.795Z,101373.00
2023-01-29T19:17:13.845Z,101375.00
2023-01-29T19:19:40.612Z,101373.00
2023-01-29T19:22:07.379Z,101361.00
2023-01-29T19:24:38.833Z,101368.00
2023-01-29T19:27:09.560Z,101357.00
2023-01-29T19:29:36.291Z,101352.00
2023-01-29T19:32:04.329Z,101337.00
2023-01-29T19:34:31.055Z,101340.00
2023-01-29T19:36:57.983Z,101337.00
2023-01-29T19:39:24.712Z,101326.00
2023-01-29T19:41:51.586Z,101314.00
2023-01-29T19:44:18.438Z,101319.00
2023-01-29T19:46:46.925Z,101310.00
2023-01-29T19:49:14.311Z,101314.00
2023-01-29T19:51:41.445Z,101304.00
2023-01-29T19:54:09.905Z,101302.00
2023-01-29T19:56:36.885Z,101306.00
2023-01-29T19:59:04.991Z,101300.00
2023-01-29T20:01:31.810Z,101308.00
2023-01-29T20:03:58.592Z,101291.00
2023-01-29T20:06:32.422Z,101298.00
2023-01-29T20:09:02.140Z,101281.00
2023-01-29T20:11:30.779Z,101285.00
2023-01-29T20:13:58.282Z,101277.00
2023-01-29T20:16:26.451Z,101271.00
2023-01-29T20:18:53.285Z,101260.00
2023-01-29T20:21:22.043Z,101257.00
2023-01-29T20:23:51.418Z,101250.00
2023-01-29T20:26:18.867Z,101244.00
2023-01-29T20:28:48.196Z,101250.00
2023-01-29T20:31:16.603Z,101249.00
2023-01-29T20:33:44.464Z,101240.00
2023-01-29T20:36:14.654Z,101232.00
2023-01-29T20:38:41.666Z,101231.00
2023-01-29T20:41:13.194Z,101234.00
2023-01-29T20:43:40.741Z,101226.00
2023-01-29T20:46:07.616Z,101221.00
2023-01-29T20:48:34.610Z,101220.00
2023-01-29T20:51:17.695Z,101216.00
2023-01-29T20:53:46.952Z,101204.00
2023-01-29T20:56:16.584Z,101198.00
2023-01-29T20:58:44.622Z,101189.00
2023-01-29T21:01:15.658Z,101196.00
2023-01-29T21:03:43.099Z,101187.00
2023-01-29T21:06:11.811Z,101193.00
2023-01-29T21:08:39.532Z,101180.00
2023-01-29T21:11:08.207Z,101168.00
2023-01-29T21:13:35.381Z,101155.00
2023-01-29T21:16:02.422Z,101151.00
2023-01-29T21:18:29.691Z,101158.00
2023-01-29T21:20:56.605Z,101151.00
2023-01-29T21:23:23.341Z,101149.00
2023-01-29T21:25:50.102Z,101141.00
2023-01-29T21:28:16.994Z,101140.00
2023-01-29T21:30:43.786Z,101134.00
2023-01-29T21:33:10.671Z,101129.00
2023-01-29T21:35:38.388Z,101127.00
2023-01-29T21:38:05.408Z,101121.00
2023-01-29T21:40:32.368Z,101108.00
2023-01-29T21:43:11.432Z,101109.00
2023-01-29T21:45:39.681Z,101093.00
2023-01-29T21:48:07.396Z,101086.00
2023-01-29T21:50:34.182Z,101084.00
2023-01-29T21:53:01.236Z,101090.00
2023-01-29T21:55:28.331Z,101087.00
2023-01-29T21:57:55.581Z,101088.00
2023-01-29T22:00:22.575Z,101079.00
2023-01-29T22:02:50.122Z,101081.00
2023-01-29T22:05:19.988Z,101071.00
2023-01-29T22:07:48.542Z,101076.00
2023-01-29T22:10:18.281Z,101059.00
2023-01-29T22:12:45.502Z,101054.00
2023-01-29T22:15:13.573Z,101065.00
2023-01-29T22:17:41.467Z,101056.00
2023-01-29T22:20:11.927Z,101054.00
2023-01-29T22:22:38.829Z,101057.00
2023-01-29T22:25:06.336Z,101040.00
2023-01-29T22:27:34.129Z,101039.00
2023-01-29T22:30:01.410Z,101029.00
2023-01-29T22:32:28.468Z,101021.00
2023-01-29T22:34:55.237Z,101017.00
2023-01-29T22:37:22.073Z,101011.00
2023-01-29T22:39:48.973Z,101001.00
2023-01-29T22:42:15.715Z,100996.00
2023-01-29T22:44:42.740Z,101000.00
2023-01-29T22:47:09.687Z,101004.00
2023-01-29T22:49:36.460Z,100988.00
2023-01-29T22:52:12.199Z,100985.00
2023-01-29T22:54:43.478Z,100970.00
2023-01-29T22:57:12.817Z,100965.00
2023-01-29T22:59:39.920Z,100960.00
2023-01-29T23:02:08.274Z,100953.00
2023-01-29T23:04:35.425Z,100943.00
2023-01-29T23:07:02.705Z,100942.00
2023-01-29T23:09:29.560Z,100932.00
2023-01-29T23:11:56.869Z,100944.00
2023-01-29T23:14:23.671Z,100931.00
2023-01-29T23:16:50.392Z,100937.00
2023-01-29T23:19:17.240Z,100931.00
2023-01-29T23:21:44.020Z,100908.00
2023-01-29T23:24:10.953Z,100906.00
2023-01-29T23:26:56.724Z,100908.00
2023-01-29T23:29:23.555Z,100900.00
2023-01-29T23:31:50.565Z,100891.00
2023-01-29T23:34:17.575Z,100895.00
2023-01-29T23:36:44.530Z,100897.00
2023-01-29T23:39:11.295Z,100885.00
2023-01-29T23:41:41.023Z,100887.00
2023-01-29T23:44:07.925Z,100874.00
2023-01-29T23:46:34.942Z,100875.00
2023-01-29T23:49:01.818Z,100868.00
2023-01-29T23:51:28.834Z,100860.00
2023-01-29T23:53:55.592Z,100863.00
2023-01-29T23:56:22.491Z,100863.00
2023-01-29T23:58:57.098Z,100864.00
